This is the latest recevied weather packets stored in our database for station/object K5WNG. If no packets are shown the sender has not sent any weather packets the latest 10 day(s).
| Time | Temp. | Humidity | Pressure | Rain* | Wind** | Luminosity | Snow |
|---|---|---|---|---|---|---|---|
| 1778086819 | 21.67° C | 78% | 1011.5 hPa | 0 mm | - | 943 W/m² | - |
| 1778086516 | 21.11° C | 80% | 1011.5 hPa | 0 mm | - | 933 W/m² | - |
| 1778086218 | 20.56° C | 80% | 1011.8 hPa | 0 mm | - | 909 W/m² | - |
| 1778085919 | 19.44° C | 83% | 1012.1 hPa | 0 mm | - | 910 W/m² | - |
| 1778085616 | 18.89° C | 85% | 1012.1 hPa | 0.25 mm | - | 814 W/m² | - |
| 1778085316 | 18.33° C | 87% | 1012.2 hPa | 0.25 mm | - | 649 W/m² | - |
| 1778085019 | 17.78° C | 90% | 1012.2 hPa | 0.25 mm | - | 683 W/m² | - |
| 1778084733 | 17.22° C | 92% | 1012.4 hPa | 0.25 mm | - | 460 W/m² | - |
| 1778084428 | 17.22° C | 93% | 1012.8 hPa | 0.25 mm | - | 231 W/m² | - |
| 1778084128 | 17.22° C | 93% | 1013.2 hPa | 0.25 mm | - | 114 W/m² | - |
| 1778083831 | 17.22° C | 93% | 1013.1 hPa | 0.25 mm | - | 119 W/m² | - |
| 1778083516 | 17.22° C | 93% | 1013.2 hPa | 0.25 mm | - | 113 W/m² | - |
| 1778083220 | 17.78° C | 92% | 1013.1 hPa | 0.25 mm | - | 128 W/m² | - |
| 1778082933 | 17.78° C | 92% | 1013.1 hPa | 0.25 mm | - | 87 W/m² | - |
| 1778082617 | 18.33° C | 91% | 1013.1 hPa | 0.25 mm | - | 40 W/m² | - |
| 1778082329 | 18.89° C | 90% | 1012.7 hPa | 0.25 mm | - | 53 W/m² | - |
| 1778082032 | 19.44° C | 89% | 1012.6 hPa | 0 mm | - | 42 W/m² | - |
| 1778081729 | 19.44° C | 89% | 1012.7 hPa | 0 mm | - | 32 W/m² | - |
| 1778081432 | 20° C | 89% | 1012.5 hPa | 0 mm | - | 66 W/m² | - |
| 1778081129 | 20.56° C | 88% | 1012.3 hPa | 0 mm | - | 56 W/m² | - |
| 1778080832 | 21.67° C | 86% | 1012 hPa | 0 mm | - | 37 W/m² | - |
| 1778080529 | 22.78° C | 84% | 1011.9 hPa | 0 mm | - | 22 W/m² | - |
| 1778080229 | 24.44° C | 81% | 1011.8 hPa | 0 mm | - | 18 W/m² | - |
| 1778079932 | 25.56° C | 84% | 1011.3 hPa | 0 mm | - | 66 W/m² | - |
| 1778079634 | 25.56° C | 84% | 1011.2 hPa | 0 mm | - | 109 W/m² | - |
* Rain latest hour (hover to see other rain measurements)
** Current wind speed in m/s (hover to see current wind gust speed)